Terminal Aerodrome Forecast
Issued by NWS

Home | Current Version | Previous Version | Text Only | Print | Product List | Glossary On
Versions: 1 2 3 4 5 6 7 8 9 10 11 12 13 14 15 16 17 18 19 20
517
FTUS43 KLSX 251120
TAFUIN
TAF
KUIN 251120Z 2512/2612 32004KT 6SM BR FEW250
     FM251400 31006KT P6SM FEW035
     FM252300 21004KT P6SM FEW250
     FM260300 14004KT P6SM SCT130=

USA.gov is the U.S. government's official web portal to all federal, state and local government web resources and services.